Time;durP1;ratioP1;P1;durP2;ratioP2;P2;SDS_P1;SDS_P2;PMS_P1;PMS_P2;Temp;Humidity;BMP_temperature;BMP_pressure;BME280_temperature;BME280_humidity;BME280_pressure;Samples;Min_cycle;Max_cycle;Signal;HPM_P1;HPM_P2
2022/11/29 00:02:06;;;;;;;39.23;20.95;;;;;;;2.47;84.82;101306.73;1790009;78;20933;-80
2022/11/29 00:04:51;;;;;;;40.65;21.23;;;;;;;2.47;84.82;101306.73;1784181;79;20949;-79
2022/11/29 00:07:37;;;;;;;39.65;21.02;;;;;;;2.47;84.81;101302.91;1785907;78;20902;-80
2022/11/29 00:10:21;;;;;;;35.60;19.17;;;;;;;2.47;84.82;101306.73;1782022;78;21334;-79
2022/11/29 00:13:06;;;;;;;35.63;20.90;;;;;;;2.48;84.82;101306.33;1792265;79;21115;-80
2022/11/29 00:15:51;;;;;;;38.50;20.10;;;;;;;2.47;84.81;101302.91;1782467;79;21287;-80
2022/11/29 00:18:36;;;;;;;35.00;20.27;;;;;;;2.46;84.80;101299.90;1783509;79;21473;-79
2022/11/29 00:21:21;;;;;;;34.58;19.25;;;;;;;2.46;84.80;101306.69;1786754;79;21334;-80
2022/11/29 00:24:08;;;;;;;37.15;20.60;;;;;;;2.46;84.82;101306.69;1782265;79;20894;-80
2022/11/29 00:26:53;;;;;;;38.80;19.23;;;;;;;2.44;84.79;101301.55;1787136;79;20933;-80
2022/11/29 00:29:38;;;;;;;35.83;18.25;;;;;;;2.44;84.82;101302.82;1787502;79;20894;-80
2022/11/29 00:32:24;;;;;;;31.15;18.05;;;;;;;2.43;84.78;101304.05;1784086;79;20937;-80
2022/11/29 00:35:08;;;;;;;37.28;20.12;;;;;;;2.41;84.79;101310.80;1792030;79;20898;-79
2022/11/29 00:37:53;;;;;;;37.67;19.70;;;;;;;2.40;84.79;101313.77;1791417;78;21270;-79
2022/11/29 00:40:38;;;;;;;34.63;18.73;;;;;;;2.37;84.80;101307.70;1781258;79;20914;-80
2022/11/29 00:43:23;;;;;;;36.45;18.98;;;;;;;2.37;84.81;101308.58;1784277;79;20894;-80
2022/11/29 00:46:10;;;;;;;33.42;19.30;;;;;;;2.37;84.79;101306.44;1786394;79;21430;-79
2022/11/29 00:48:55;;;;;;;34.35;19.35;;;;;;;2.35;84.80;101299.14;1783445;79;20937;-81
2022/11/29 00:51:40;;;;;;;34.88;19.32;;;;;;;2.34;84.79;101299.55;1790443;79;21338;-80
2022/11/29 00:54:25;;;;;;;34.70;19.40;;;;;;;2.33;84.82;101304.20;1749911;79;20906;-80
2022/11/29 00:57:09;;;;;;;32.50;17.48;;;;;;;2.32;84.80;101302.06;1770160;80;20879;-80
2022/11/29 00:59:54;;;;;;;35.38;18.62;;;;;;;2.33;84.82;101305.48;1771038;80;20922;-80
2022/11/29 01:02:39;;;;;;;35.23;20.00;;;;;;;2.35;84.84;101309.35;1708600;82;20946;-80
2022/11/29 01:05:24;;;;;;;34.27;18.82;;;;;;;2.35;84.83;101304.25;1723195;82;20906;-79
2022/11/29 01:08:12;;;;;;;34.95;19.25;;;;;;;2.36;84.84;101301.73;1712642;82;20934;-79
2022/11/29 01:11:13;;;;;;;34.13;18.65;;;;;;;2.38;84.86;101306.47;1719312;82;21509;-79
2022/11/29 01:14:01;;;;;;;34.18;19.37;;;;;;;2.37;84.81;101303.47;1712484;82;21469;-80
2022/11/29 01:16:45;;;;;;;35.52;19.15;;;;;;;2.38;84.84;101306.89;1716422;82;21442;-80
2022/11/29 01:19:30;;;;;;;33.25;18.17;;;;;;;2.40;84.84;101306.52;1719377;82;20942;-79
2022/11/29 01:22:15;;;;;;;33.55;19.55;;;;;;;2.40;84.83;101303.97;1718232;82;20922;-79
2022/11/29 01:25:01;;;;;;;31.62;18.32;;;;;;;2.40;84.85;101302.69;1717832;82;20918;-79
2022/11/29 01:27:46;;;;;;;36.33;19.48;;;;;;;2.41;84.83;101301.45;1715801;82;20957;-79
2022/11/29 01:30:30;;;;;;;31.77;18.57;;;;;;;2.41;84.81;101300.59;1715504;82;20998;-79
2022/11/29 01:33:15;;;;;;;33.10;18.40;;;;;;;2.43;84.84;101304.05;1718778;82;21240;-79
2022/11/29 01:36:01;;;;;;;37.28;18.82;;;;;;;2.43;84.83;101305.33;1719888;82;20899;-79
2022/11/29 01:38:46;;;;;;;42.33;19.45;;;;;;;2.43;84.84;101293.84;1709833;81;21489;-79
2022/11/29 01:41:33;;;;;;;35.90;18.77;;;;;;;2.44;84.84;101303.23;1716521;82;20918;-79
2022/11/29 01:44:24;;;;;;;33.00;18.65;;;;;;;2.45;84.81;101301.13;1716231;82;20969;-79
2022/11/29 01:47:10;;;;;;;34.20;19.12;;;;;;;2.43;84.79;101299.81;1727283;81;20886;-79
2022/11/29 01:49:55;;;;;;;35.58;18.87;;;;;;;2.45;84.82;101308.37;1718297;82;21383;-79
2022/11/29 01:52:41;;;;;;;32.08;17.57;;;;;;;2.45;84.82;101297.30;1706660;82;20922;-80
2022/11/29 01:55:26;;;;;;;32.30;17.95;;;;;;;2.45;84.80;101302.00;1722636;82;20911;-80
2022/11/29 01:58:12;;;;;;;34.80;18.15;;;;;;;2.46;84.81;101299.90;1721238;81;20954;-80
2022/11/29 02:00:58;;;;;;;36.20;18.15;;;;;;;2.45;84.81;101305.83;1701438;82;21470;-79
2022/11/29 02:03:43;;;;;;;34.67;18.87;;;;;;;2.46;84.82;101297.34;1714532;82;21482;-80
2022/11/29 02:06:29;;;;;;;33.08;18.20;;;;;;;2.47;84.80;101301.63;1722326;82;20922;-80
2022/11/29 02:09:22;;;;;;;33.78;18.55;;;;;;;2.48;84.80;101297.39;1719817;81;20974;-80
2022/11/29 02:12:30;;;;;;;33.60;19.23;;;;;;;2.48;84.81;101298.66;1719386;82;21474;-80
2022/11/29 02:15:43;;;;;;;30.95;18.10;;;;;;;2.49;84.83;101292.73;1769915;79;20887;-80
2022/11/29 02:18:54;;;;;;;33.00;17.57;;;;;;;2.49;84.80;101287.63;1719441;82;20961;-80
2022/11/29 02:21:52;;;;;;;34.40;17.30;;;;;;;2.50;84.81;101296.61;1767894;79;21494;-80
2022/11/29 02:24:54;;;;;;;31.52;17.95;;;;;;;2.50;84.79;101291.91;1773090;79;21427;-80
2022/11/29 02:28:07;;;;;;;40.40;19.70;;;;;;;2.49;84.78;101293.61;1726313;81;21353;-80
2022/11/29 02:31:16;;;;;;;30.43;17.50;;;;;;;2.50;84.81;101295.34;1739360;80;20949;-80
2022/11/29 02:34:24;;;;;;;34.92;19.30;;;;;;;2.51;84.81;101298.34;1738303;81;20906;-80
2022/11/29 02:37:32;;;;;;;32.55;18.60;;;;;;;2.51;84.79;101299.62;1719914;82;20926;-79
2022/11/29 02:40:51;;;;;;;37.90;19.45;;;;;;;2.52;84.80;101306.86;1692424;82;20958;-79
2022/11/29 02:44:10;;;;;;;34.50;19.15;;;;;;;2.52;84.79;101302.63;1771658;80;21364;-79
2022/11/29 02:47:09;;;;;;;30.50;17.95;;;;;;;2.53;84.78;101308.19;1768859;80;21196;-79
2022/11/29 02:50:19;;;;;;;36.13;18.10;;;;;;;2.53;84.79;101304.77;1767120;79;20918;-79
2022/11/29 02:53:14;;;;;;;31.42;18.50;;;;;;;2.53;84.79;101303.08;1769512;79;20897;-80
2022/11/29 02:56:24;;;;;;;;;;;;;;;2.54;84.78;101312.47;1714109;82;20927;-79
2022/11/29 02:59:37;;;;;;;32.55;16.75;;;;;;;2.54;84.75;101312.88;1768825;79;20428;-79
2022/11/29 03:02:43;;;;;;;38.00;18.60;;;;;;;2.54;84.79;101318.84;1766209;78;21351;-79
2022/11/29 03:05:49;;;;;;;32.25;18.67;;;;;;;2.55;84.77;101315.88;1771179;79;21505;-79
2022/11/29 03:08:54;;;;;;;32.20;17.80;;;;;;;2.56;84.80;101317.61;1769604;80;21382;-80
2022/11/29 03:11:54;;;;;;;28.75;16.97;;;;;;;2.57;84.80;101323.17;1767746;80;20938;-79
2022/11/29 03:15:05;;;;;;;33.85;19.48;;;;;;;2.56;84.76;101323.58;1768237;79;20907;-80
2022/11/29 03:18:07;;;;;;;29.52;17.42;;;;;;;2.58;84.75;101327.05;1764253;80;21447;-80
2022/11/29 03:21:17;;;;;;;35.80;19.60;;;;;;;2.57;84.76;101322.77;1766106;80;21356;-80
2022/11/29 03:24:07;;;;;;;38.33;19.20;;;;;;;2.58;84.77;101321.08;1767067;80;21463;-80
2022/11/29 03:26:57;;;;;;;34.88;19.82;;;;;;;2.60;84.79;101324.09;1769328;80;21453;-79
2022/11/29 03:29:57;;;;;;;37.73;19.15;;;;;;;2.60;84.75;101325.37;1765535;80;20883;-80
2022/11/29 03:33:10;;;;;;;35.80;20.88;;;;;;;2.60;84.76;101328.36;1766814;79;20930;-80
2022/11/29 03:36:09;;;;;;;36.93;18.77;;;;;;;2.61;84.74;101333.48;1750159;80;20899;-79
2022/11/29 03:38:58;;;;;;;36.77;20.08;;;;;;;2.60;84.75;101329.64;1713632;81;21268;-79
2022/11/29 03:42:00;;;;;;;35.20;19.65;;;;;;;2.60;84.75;101333.47;1709060;82;20954;-80
2022/11/29 03:45:14;;;;;;;32.88;18.73;;;;;;;2.60;84.75;101333.47;1693299;82;21390;-80
2022/11/29 03:48:15;;;;;;;38.78;20.37;;;;;;;2.60;84.75;101338.13;1690632;82;20985;-80
2022/11/29 03:51:14;;;;;;;35.58;19.17;;;;;;;2.60;84.72;101336.86;1718544;81;20918;-80
2022/11/29 03:54:09;;;;;;;35.75;19.32;;;;;;;2.60;84.74;101332.20;1744347;80;20957;-79
2022/11/29 03:56:55;;;;;;;39.42;20.62;;;;;;;2.59;84.72;101338.98;1718157;82;21257;-80
2022/11/29 03:59:48;;;;;;;38.28;20.23;;;;;;;2.59;84.75;101335.16;1712359;81;20903;-80
2022/11/29 04:03:08;;;;;;;35.30;19.80;;;;;;;2.60;84.76;101336.02;1734680;81;21482;-79
2022/11/29 04:06:13;;;;;;;37.63;20.25;;;;;;;2.60;84.72;101337.30;1632939;81;165900;-79
2022/11/29 04:09:35;;;;;;;36.60;19.62;;;;;;;2.58;84.75;101333.43;1630365;86;20984;-80
2022/11/29 04:12:25;;;;;;;35.40;19.00;;;;;;;2.60;84.75;101338.58;1621677;86;21002;-79
2022/11/29 04:15:45;;;;;;;36.75;21.05;;;;;;;2.62;84.75;101340.73;1625246;86;20945;-80
2022/11/29 04:18:55;;;;;;;37.23;19.90;;;;;;;2.60;84.71;101343.23;1632409;86;20936;-80
2022/11/29 04:21:45;;;;;;;32.75;18.30;;;;;;;2.61;84.76;101346.25;1632669;85;20976;-80
2022/11/29 04:25:10;;;;;;;37.45;20.35;;;;;;;2.60;84.69;101350.06;1635202;85;20945;-79
2022/11/29 04:28:11;;;;;;;39.80;21.77;;;;;;;2.60;84.72;101350.90;1632212;85;21354;-80
2022/11/29 04:31:13;;;;;;;38.53;20.80;;;;;;;2.61;84.71;101350.48;1630372;86;20925;-79
2022/11/29 04:34:37;;;;;;;39.38;20.70;;;;;;;2.61;84.72;101355.59;1503155;85;5001423;-80
2022/11/29 04:37:50;;;;;;;40.50;21.35;;;;;;;2.60;84.67;101352.62;1632839;85;20924;-79
2022/11/29 04:41:09;;;;;;;36.65;21.25;;;;;;;2.59;84.69;101354.72;1634021;85;21040;-79
2022/11/29 04:44:07;;;;;;;41.50;22.30;;;;;;;2.59;84.67;101361.97;1631557;85;20993;-79
2022/11/29 04:47:22;;;;;;;40.05;20.32;;;;;;;2.59;84.72;101362.37;1632031;85;21031;-79
2022/11/29 04:50:36;;;;;;;39.67;21.50;;;;;;;2.58;84.73;101360.23;1631991;85;20964;-80
2022/11/29 04:53:54;;;;;;;40.65;21.20;;;;;;;2.58;84.71;101361.51;1633076;87;21539;-79
2022/11/29 04:56:53;;;;;;;39.18;21.00;;;;;;;2.59;84.68;101361.09;1633175;87;21028;-80
2022/11/29 04:59:49;;;;;;;44.50;21.10;;;;;;;2.55;84.64;101359.28;1629331;85;20955;-79
2022/11/29 05:03:03;;;;;;;38.67;22.65;;;;;;;2.54;84.65;101367.77;1626147;86;20932;-80
2022/11/29 05:05:56;;;;;;;40.83;22.90;;;;;;;2.55;84.72;101368.22;1630478;85;20944;-79
2022/11/29 05:09:04;;;;;;;35.43;20.62;;;;;;;2.53;84.71;101370.72;1649043;85;20975;-79
2022/11/29 05:12:13;;;;;;;37.05;22.15;;;;;;;2.55;84.71;101380.98;1616895;87;21420;-80
2022/11/29 05:15:24;;;;;;;40.88;22.48;;;;;;;2.55;84.71;101378.02;1623812;86;21042;-80
2022/11/29 05:18:45;;;;;;;43.60;23.02;;;;;;;2.55;84.69;101380.98;1623194;86;20934;-79
2022/11/29 05:21:51;;;;;;;42.20;23.50;;;;;;;2.55;84.70;101385.67;1630696;86;20932;-79
2022/11/29 05:24:50;;;;;;;44.65;23.00;;;;;;;2.55;84.68;101380.98;1634975;85;20940;-83
2022/11/29 05:27:55;;;;;;;44.88;23.45;;;;;;;2.54;84.65;101387.77;1629100;85;21411;-78
2022/11/29 05:30:55;;;;;;;48.13;25.25;;;;;;;2.52;84.65;101384.31;1648459;86;20990;-78
2022/11/29 05:33:50;;;;;;;55.80;27.35;;;;;;;2.51;84.71;101395.75;1624591;87;20979;-78
2022/11/29 05:36:46;;;;;;;60.90;29.23;;;;;;;2.52;84.70;101392.38;1647399;85;20993;-78
2022/11/29 05:39:57;;;;;;;50.12;28.32;;;;;;;2.49;84.66;101394.43;1647379;85;21034;-78
2022/11/29 05:43:02;;;;;;;58.87;30.72;;;;;;;2.50;84.68;101401.67;1624246;86;20952;-78
2022/11/29 05:46:04;;;;;;;66.22;33.08;;;;;;;2.50;84.67;101399.13;1634826;85;20967;-78
2022/11/29 05:49:37;;;;;;;61.90;31.52;;;;;;;2.50;84.70;101402.55;1631282;85;21531;-78
2022/11/29 05:52:36;;;;;;;56.48;30.52;;;;;;;2.48;84.66;101402.91;1644540;86;21105;-79
2022/11/29 05:55:50;;;;;;;54.13;27.00;;;;;;;2.48;84.68;101410.97;1628855;86;21083;-78
2022/11/29 05:59:01;;;;;;;50.98;27.13;;;;;;;2.46;84.62;101410.06;1602024;86;21766;-78
2022/11/29 06:02:10;;;;;;;59.65;29.15;;;;;;;2.42;84.64;101414.62;1618962;87;21402;-78
2022/11/29 06:05:15;;;;;;;54.95;26.20;;;;;;;2.40;84.64;101417.54;1656926;84;22225;-79
2022/11/29 06:08:31;;;;;;;52.27;27.90;;;;;;;2.37;84.61;101421.27;1637184;87;21674;-79
2022/11/29 06:11:49;;;;;;;43.73;25.80;;;;;;;2.32;84.59;101414.34;1644612;85;21647;-78
2022/11/29 06:14:57;;;;;;;44.73;25.65;;;;;;;2.31;84.64;101413.02;1648384;85;21583;-79
2022/11/29 06:17:56;;;;;;;42.98;25.52;;;;;;;2.30;84.67;101425.33;1645860;86;21518;-79
2022/11/29 06:21:01;;;;;;;48.50;26.87;;;;;;;2.29;84.66;101429.56;1636388;85;21071;-79
2022/11/29 06:24:23;;;;;;;74.53;35.00;;;;;;;2.30;84.66;101431.30;1648780;86;21120;-78
2022/11/29 06:27:36;;;;;;;118.37;51.13;;;;;;;2.31;84.65;101434.71;1646559;85;21079;-78
2022/11/29 06:30:32;;;;;;;55.83;29.20;;;;;;;2.29;84.65;101439.77;1648186;85;21055;-78
2022/11/29 06:33:28;;;;;;;59.85;30.43;;;;;;;2.29;84.63;101441.45;1647120;85;21131;-78
2022/11/29 06:36:37;;;;;;;47.05;27.30;;;;;;;2.27;84.61;101443.95;1645698;86;21051;-78
2022/11/29 06:39:22;;;;;;;55.12;29.80;;;;;;;2.27;84.61;101444.37;1646057;85;21067;-79
2022/11/29 06:42:07;;;;;;;63.52;32.67;;;;;;;2.28;84.65;101446.97;1645366;86;21172;-78
2022/11/29 06:44:53;;;;;;;48.52;26.85;;;;;;;2.27;84.62;101447.78;1647177;85;21154;-78
2022/11/29 06:47:56;;;;;;;52.15;27.82;;;;;;;2.30;84.63;101453.39;1647393;85;21597;-78
2022/11/29 06:51:01;;;;;;;49.35;25.82;;;;;;;2.29;84.62;101452.94;1633999;87;21059;-78
2022/11/29 06:54:14;;;;;;;54.33;27.22;;;;;;;2.26;84.54;101450.29;1659042;84;21115;-78
2022/11/29 06:57:54;;;;;;;46.08;27.42;;;;;;;2.26;84.61;101457.95;1659243;84;21084;-78
2022/11/29 07:00:53;;;;;;;42.95;25.20;;;;;;;2.26;84.60;101460.09;1658865;84;21193;-78
2022/11/29 07:03:55;;;;;;;46.28;26.45;;;;;;;2.23;84.52;101464.23;1656555;84;21169;-78
2022/11/29 07:06:41;;;;;;;42.62;25.52;;;;;;;2.23;84.59;101466.37;1661177;84;21077;-79
2022/11/29 07:09:32;;;;;;;50.40;27.77;;;;;;;2.24;84.60;101468.52;1633046;84;21892;-78
2022/11/29 07:12:18;;;;;;;51.20;27.50;;;;;;;2.24;84.56;101469.78;1632052;87;21115;-78
2022/11/29 07:15:04;;;;;;;48.55;27.70;;;;;;;2.23;84.56;101466.78;1627951;87;21142;-78
2022/11/29 07:17:54;;;;;;;42.27;26.12;;;;;;;2.21;84.48;101469.28;1657626;84;21624;-78
2022/11/29 07:21:09;;;;;;;42.75;27.20;;;;;;;2.21;84.52;101469.69;1659750;85;21126;-78
2022/11/29 07:24:35;;;;;;;47.53;27.60;;;;;;;2.19;84.52;101477.30;1660164;86;21991;-78
2022/11/29 07:27:56;;;;;;;50.98;26.80;;;;;;;2.17;84.49;101470.00;1653044;84;21074;-78
2022/11/29 07:31:07;;;;;;;44.05;25.55;;;;;;;2.17;84.50;101465.31;1623922;85;22002;-78
2022/11/29 07:34:23;;;;;;;48.65;27.90;;;;;;;2.18;84.54;101464.48;1657489;86;21383;-78
2022/11/29 07:37:34;;;;;;;49.27;26.70;;;;;;;2.18;84.52;101479.39;1658862;84;21077;-78
2022/11/29 07:40:40;;;;;;;43.42;25.65;;;;;;;2.17;84.53;101477.66;1660922;84;21394;-79
2022/11/29 07:44:06;;;;;;;46.23;25.68;;;;;;;2.19;84.46;101478.98;1660789;84;21007;-80
2022/11/29 07:46:51;;;;;;;44.45;25.70;;;;;;;2.20;84.51;101485.81;1656443;84;21129;-80
2022/11/29 07:49:36;;;;;;;45.52;25.32;;;;;;;2.20;84.50;101487.96;1660577;84;21038;-80
2022/11/29 07:52:21;;;;;;;46.73;26.57;;;;;;;2.23;84.55;101489.74;1655480;85;21598;-81
2022/11/29 07:55:16;;;;;;;44.88;25.15;;;;;;;2.24;84.54;101488.92;1648365;85;21075;-81
2022/11/29 07:58:01;;;;;;;45.60;26.75;;;;;;;2.23;84.49;101489.33;1644929;86;21067;-81
2022/11/29 08:00:46;;;;;;;51.88;27.42;;;;;;;2.22;84.48;101488.88;1646899;85;21146;-81
2022/11/29 08:03:34;;;;;;;47.60;26.55;;;;;;;2.25;84.52;101491.94;1648277;85;21107;-80
2022/11/29 08:06:24;;;;;;;48.70;26.87;;;;;;;2.25;84.51;101490.66;1646094;85;21062;-80
2022/11/29 08:09:09;;;;;;;47.08;26.35;;;;;;;2.27;84.51;101492.85;1645312;86;21074;-80
2022/11/29 08:11:54;;;;;;;47.65;27.10;;;;;;;2.26;84.46;101494.94;1637808;85;21055;-81
2022/11/29 08:14:40;;;;;;;51.33;28.67;;;;;;;2.27;84.48;101500.09;1648354;85;21099;-80
2022/11/29 08:17:25;;;;;;;45.33;26.40;;;;;;;2.29;84.53;101495.91;1646563;86;22356;-80
2022/11/29 08:20:12;;;;;;;51.88;28.70;;;;;;;2.30;84.48;101495.09;1647710;85;21401;-80
2022/11/29 08:22:58;;;;;;;44.08;26.87;;;;;;;2.30;84.45;101500.19;1646968;85;21137;-81
2022/11/29 08:25:44;;;;;;;41.75;25.68;;;;;;;2.31;84.45;101499.78;1637768;85;21058;-80
2022/11/29 08:28:29;;;;;;;47.08;27.52;;;;;;;2.32;84.49;101498.97;1646976;86;21584;-80
2022/11/29 08:31:14;;;;;;;50.28;27.98;;;;;;;2.35;84.46;101504.17;1614968;87;21581;-80
2022/11/29 08:33:59;;;;;;;48.30;27.87;;;;;;;2.34;84.37;101512.64;1648211;86;21573;-81
2022/11/29 08:36:45;;;;;;;47.90;26.62;;;;;;;2.31;84.35;101505.75;1637767;85;21092;-82
2022/11/29 08:39:30;;;;;;;50.70;28.45;;;;;;;2.29;84.35;101509.95;1642540;86;21352;-81
2022/11/29 08:42:15;;;;;;;47.73;27.48;;;;;;;2.27;84.34;101514.13;1643505;85;21069;-81
2022/11/29 08:44:59;;;;;;;48.52;27.90;;;;;;;2.26;84.40;101508.98;1648685;85;21804;-81
2022/11/29 08:47:44;;;;;;;48.25;27.95;;;;;;;2.24;84.34;101505.10;1647762;86;21656;-80
2022/11/29 08:50:29;;;;;;;49.42;28.65;;;;;;;2.23;84.38;101505.92;1638004;85;21119;-81
2022/11/29 08:54:15;;;;;;;51.92;28.57;;;;;;;2.24;84.36;101508.93;1642613;85;21074;-81
2022/11/29 08:56:13;;;;;;;52.25;29.05;;;;;;;2.24;84.37;101516.99;1616615;87;21016;-81
2022/11/29 08:58:58;;;;;;;53.38;29.70;;;;;;;2.22;84.33;101510.56;1619431;86;21004;-81
2022/11/29 09:01:44;;;;;;;49.75;28.40;;;;;;;2.23;84.38;101513.98;1638089;85;21114;-81
2022/11/29 09:04:29;;;;;;;49.93;29.50;;;;;;;2.25;84.36;101520.87;1615089;87;21148;-81
2022/11/29 09:07:14;;;;;;;48.83;28.83;;;;;;;2.24;84.36;101518.27;1638815;85;21370;-80
2022/11/29 09:10:04;;;;;;;46.48;27.82;;;;;;;2.22;84.34;101517.35;1610647;87;21096;-80
2022/11/29 09:12:47;;;;;;;51.02;28.80;;;;;;;2.24;84.41;101515.72;1640891;85;22101;-81
2022/11/29 09:15:32;;;;;;;53.63;31.20;;;;;;;2.27;84.45;101513.27;1613239;88;20999;-81
2022/11/29 09:18:17;;;;;;;55.55;29.75;;;;;;;2.25;84.31;101520.00;1638545;87;21058;-81
2022/11/29 09:21:08;;;;;;;55.73;29.65;;;;;;;2.25;84.33;101520.87;1613221;87;21341;-80
2022/11/29 09:23:58;;;;;;;57.93;31.00;;;;;;;2.24;84.33;101515.72;1637752;85;21963;-80
2022/11/29 09:26:47;;;;;;;51.77;30.60;;;;;;;2.25;84.35;101525.97;1613082;88;21647;-81
2022/11/29 09:29:30;;;;;;;56.08;29.60;;;;;;;2.24;84.30;101522.09;1622023;86;21476;-80
2022/11/29 09:32:15;;;;;;;48.33;27.27;;;;;;;2.24;84.34;101527.20;1620484;88;21083;-81
2022/11/29 09:35:00;;;;;;;56.90;32.58;;;;;;;2.24;84.36;101531.02;1619713;88;21131;-80
2022/11/29 09:37:45;;;;;;;53.92;30.10;;;;;;;2.26;84.32;101535.77;1620900;86;21580;-80
2022/11/29 09:40:47;;;;;;;53.70;30.25;;;;;;;2.24;84.30;101535.72;1618609;88;21080;-81
2022/11/29 09:44:01;;;;;;;52.60;31.15;;;;;;;2.25;84.35;101534.91;1622180;86;21083;-80
2022/11/29 09:47:06;;;;;;;55.95;31.12;;;;;;;2.27;84.36;101534.95;1621468;87;21064;-81
2022/11/29 09:50:02;;;;;;;55.08;30.95;;;;;;;2.27;84.30;101528.58;1643830;85;21140;-80
2022/11/29 09:52:53;;;;;;;;;;;;;;;2.29;84.39;101531.63;1616433;87;21494;-81
2022/11/29 09:56:00;;;;;;;51.37;30.05;;;;;;;2.33;84.35;101535.16;1649418;85;20187;-80
2022/11/29 09:58:50;;;;;;;59.90;32.53;;;;;;;2.32;84.30;101534.28;1627519;87;21665;-80
2022/11/29 10:01:42;;;;;;;55.55;33.28;;;;;;;2.30;84.23;101526.13;1622330;86;21103;-80
2022/11/29 10:04:36;;;;;;;51.92;30.25;;;;;;;2.27;84.16;101529.84;1621327;86;21566;-81
2022/11/29 10:07:43;;;;;;;50.15;30.23;;;;;;;2.24;84.20;101532.30;1657581;83;176453;-81
2022/11/29 10:10:44;;;;;;;56.83;31.27;;;;;;;2.22;84.20;101531.38;1691445;82;23436;-81
2022/11/29 10:13:34;;;;;;;54.25;30.92;;;;;;;2.21;84.29;101538.17;1679926;82;21555;-80
2022/11/29 10:16:36;;;;;;;57.05;30.92;;;;;;;2.23;84.33;101537.81;1691661;82;21083;-81
2022/11/29 10:19:43;;;;;;;56.75;30.45;;;;;;;2.28;84.34;101541.79;1692641;82;21091;-81
2022/11/29 10:22:52;;;;;;;52.90;30.30;;;;;;;2.29;84.31;101540.56;1691181;84;21096;-80
2022/11/29 10:25:52;;;;;;;59.27;32.98;;;;;;;2.32;84.33;101552.56;1693690;82;21130;-80
2022/11/29 10:28:43;;;;;;;53.15;31.25;;;;;;;2.32;84.25;101548.73;1694140;84;22051;-81
2022/11/29 10:31:39;;;;;;;52.75;30.02;;;;;;;2.35;84.29;101550.11;1693747;82;20979;-80
2022/11/29 10:34:27;;;;;;;57.00;32.73;;;;;;;2.38;84.33;101550.20;1692409;84;168274;-81
2022/11/29 10:37:19;;;;;;;58.45;33.30;;;;;;;2.40;84.28;101551.53;1690061;82;21111;-81
2022/11/29 10:40:09;;;;;;;56.15;31.57;;;;;;;2.42;84.28;101549.89;1693222;82;20984;-81
2022/11/29 10:42:54;;;;;;;54.63;32.65;;;;;;;2.41;84.21;101554.12;1692013;84;21971;-81
2022/11/29 10:45:49;;;;;;;58.80;32.13;;;;;;;2.37;84.17;101548.87;1695843;82;21063;-80
2022/11/29 10:48:35;;;;;;;53.28;31.62;;;;;;;2.33;84.13;101542.40;1666553;84;21115;-78
2022/11/29 10:51:20;;;;;;;60.23;33.37;;;;;;;2.32;84.19;101553.83;1693867;82;21106;-78
2022/11/29 10:54:28;;;;;;;58.98;31.93;;;;;;;2.33;84.18;101554.29;1707515;83;21109;-78
2022/11/29 10:57:17;;;;;;;61.28;33.63;;;;;;;2.31;84.16;101553.38;1719926;82;21381;-79
2022/11/29 11:00:11;;;;;;;58.95;32.75;;;;;;;2.32;84.24;101555.98;1721204;81;21912;-78
2022/11/29 11:03:18;;;;;;;61.68;33.98;;;;;;;2.34;84.25;101548.37;1720852;83;21581;-79
2022/11/29 11:06:37;;;;;;;59.20;32.40;;;;;;;2.37;84.23;101562.91;1719603;81;20997;-79
2022/11/29 11:09:36;;;;;;;54.58;31.57;;;;;;;2.38;84.27;101560.41;1721262;81;20969;-78
2022/11/29 11:12:30;;;;;;;54.18;32.08;;;;;;;2.30;84.06;101558.89;1720577;83;21727;-79
2022/11/29 11:15:28;;;;;;;55.83;33.63;;;;;;;2.28;84.13;101562.20;1719273;82;21493;-79
2022/11/29 11:18:22;;;;;;;54.08;32.48;;;;;;;2.29;84.14;101557.56;1693957;83;21029;-79
2022/11/29 11:21:11;;;;;;;57.65;32.80;;;;;;;2.27;84.10;101555.37;1718374;83;21488;-78
2022/11/29 11:24:00;;;;;;;57.15;33.25;;;;;;;2.28;84.18;101560.52;1693005;83;21453;-79
2022/11/29 11:26:45;;;;;;;57.03;32.05;;;;;;;2.27;84.09;101560.47;1690801;83;20951;-78
2022/11/29 11:29:37;;;;;;;59.95;32.10;;;;;;;2.24;84.13;101557.41;1690440;84;20962;-79
2022/11/29 11:32:22;;;;;;;65.25;34.80;;;;;;;2.27;84.17;101560.47;1720811;81;20935;-79
2022/11/29 11:35:12;;;;;;;56.00;31.95;;;;;;;2.27;84.14;101556.64;1721879;81;21409;-79
2022/11/29 11:37:57;;;;;;;64.97;33.75;;;;;;;2.29;84.17;101557.56;1717084;82;20918;-79
2022/11/29 11:40:43;;;;;;;60.98;32.85;;;;;;;2.30;84.11;101558.02;1709796;82;20941;-79
2022/11/29 11:43:28;;;;;;;62.85;33.85;;;;;;;2.28;84.06;101557.10;1683927;84;20986;-78
2022/11/29 11:46:13;;;;;;;63.08;34.60;;;;;;;2.28;84.08;101557.10;1678021;85;22023;-78
2022/11/29 11:48:58;;;;;;;58.02;32.20;;;;;;;2.29;84.15;101559.70;1690596;83;20929;-79
2022/11/29 11:51:43;;;;;;;58.50;34.80;;;;;;;2.30;84.06;101558.02;1720138;81;21453;-79
2022/11/29 11:54:30;;;;;;;57.80;31.95;;;;;;;2.28;84.10;101557.97;1671642;83;21613;-78
2022/11/29 11:57:19;;;;;;;53.90;32.05;;;;;;;2.30;84.12;101558.02;1687273;84;20923;-78
2022/11/29 12:00:05;;;;;;;54.45;32.25;;;;;;;2.31;84.09;101561.03;1687339;84;20957;-78
2022/11/29 12:02:50;;;;;;;59.63;31.68;;;;;;;2.30;84.11;101556.34;1710144;82;20897;-78
2022/11/29 12:05:35;;;;;;;61.23;34.67;;;;;;;2.30;84.10;101558.02;1671536;84;21383;-79
2022/11/29 12:08:23;;;;;;;55.10;31.95;;;;;;;2.30;84.12;101556.34;1676289;83;21819;-78
2022/11/29 12:11:11;;;;;;;55.12;31.57;;;;;;;2.30;84.13;101559.30;1685726;83;20913;-79
2022/11/29 12:13:59;;;;;;;60.48;32.58;;;;;;;2.33;84.17;101561.95;1685534;83;20968;-79
2022/11/29 12:16:47;;;;;;;57.20;32.42;;;;;;;2.35;84.12;101563.27;1682931;84;20996;-79
2022/11/29 12:19:37;;;;;;;57.98;33.45;;;;;;;2.35;84.11;101569.66;1682009;83;20965;-79
2022/11/29 12:22:26;;;;;;;58.98;32.55;;;;;;;2.35;84.13;101569.66;1682328;83;21319;-80
2022/11/29 12:25:18;;;;;;;60.00;32.23;;;;;;;2.34;84.11;101573.89;1704167;83;21347;-78
2022/11/29 12:28:07;;;;;;;60.15;31.33;;;;;;;2.35;84.15;101579.45;1684482;83;21009;-79
2022/11/29 12:31:44;;;;;;;64.90;33.45;;;;;;;2.34;84.07;101572.61;1681340;83;21010;-78
2022/11/29 12:34:50;;;;;;;58.95;31.52;;;;;;;2.35;84.09;101578.17;1680726;84;20921;-79
2022/11/29 12:37:49;;;;;;;59.53;33.00;;;;;;;2.36;84.10;101575.22;1640774;83;21041;-79
2022/11/29 12:41:15;;;;;;;58.05;32.75;;;;;;;2.35;84.07;101579.45;1673559;84;20993;-78
2022/11/29 12:44:27;;;;;;;62.23;33.55;;;;;;;2.34;84.07;101580.27;1681590;83;21620;-79
2022/11/29 12:47:41;;;;;;;65.10;34.03;;;;;;;2.33;84.06;101578.53;1677928;84;21320;-78
2022/11/29 12:50:44;;;;;;;57.62;32.63;;;;;;;2.36;84.14;101574.81;1678705;83;21884;-80
2022/11/29 12:53:52;;;;;;;58.00;32.93;;;;;;;2.39;84.12;101583.84;1680927;83;20996;-78
2022/11/29 12:56:51;;;;;;;61.15;33.20;;;;;;;2.38;84.06;101587.62;1689100;83;20941;-79
2022/11/29 13:00:05;;;;;;;59.30;33.38;;;;;;;2.38;84.07;101584.66;1694803;84;20915;-78
2022/11/29 13:03:30;;;;;;;56.73;33.15;;;;;;;2.38;84.07;101588.90;1716601;83;21447;-78
2022/11/29 13:06:20;;;;;;;50.10;26.93;;;;;;;2.40;84.11;101586.85;1719688;82;20889;-81
2022/11/29 13:09:26;;;;;;;59.40;34.55;;;;;;;2.43;84.13;101593.34;1688817;83;21025;-81
2022/11/29 13:12:43;;;;;;;61.28;33.02;;;;;;;2.44;84.08;101590.38;1718005;82;20945;-78
2022/11/29 13:15:54;;;;;;;61.50;34.92;;;;;;;2.44;84.08;101596.34;1690273;83;21523;-78
2022/11/29 13:19:14;;;;;;;59.83;33.53;;;;;;;2.44;84.06;101598.90;1686137;83;21009;-78
2022/11/29 13:22:35;;;;;;;59.15;34.40;;;;;;;2.43;84.06;101598.44;1680258;84;20965;-78
2022/11/29 13:25:39;;;;;;;60.45;33.15;;;;;;;2.45;84.08;101605.73;1716213;83;21430;-78
2022/11/29 13:28:33;;;;;;;60.35;32.98;;;;;;;2.43;84.02;101609.92;1690267;84;20978;-78
2022/11/29 13:31:22;;;;;;;65.92;33.33;;;;;;;2.44;84.12;101613.34;1690001;84;20914;-78
2022/11/29 13:34:21;;;;;;;62.93;35.48;;;;;;;2.45;84.05;101607.02;1689348;84;20985;-80